sensor_id;sensor_type;location;lat;lon;timestamp;temperature;humidity
19261;DHT22;9764;48.114;11.670;2023-04-25T00:02:08;21.60;96.40
19261;DHT22;9764;48.114;11.670;2023-04-25T00:04:37;21.60;97.10
19261;DHT22;9764;48.114;11.670;2023-04-25T00:07:06;21.60;97.10
19261;DHT22;9764;48.114;11.670;2023-04-25T00:09:36;21.60;97.10
19261;DHT22;9764;48.114;11.670;2023-04-25T00:12:04;21.60;97.10
19261;DHT22;9764;48.114;11.670;2023-04-25T00:14:32;21.60;97.20
19261;DHT22;9764;48.114;11.670;2023-04-25T00:17:02;21.60;97.10
19261;DHT22;9764;48.114;11.670;2023-04-25T00:19:31;21.60;97.00
19261;DHT22;9764;48.114;11.670;2023-04-25T00:21:59;21.60;97.00
19261;DHT22;9764;48.114;11.670;2023-04-25T00:24:27;21.60;96.90
19261;DHT22;9764;48.114;11.670;2023-04-25T00:26:57;21.60;97.00
19261;DHT22;9764;48.114;11.670;2023-04-25T00:29:25;21.60;97.00
19261;DHT22;9764;48.114;11.670;2023-04-25T00:31:54;21.60;97.40
19261;DHT22;9764;48.114;11.670;2023-04-25T00:34:22;21.60;97.00
19261;DHT22;9764;48.114;11.670;2023-04-25T00:36:50;21.60;97.10
19261;DHT22;9764;48.114;11.670;2023-04-25T00:39:19;21.60;97.20
19261;DHT22;9764;48.114;11.670;2023-04-25T00:41:48;21.60;97.10
19261;DHT22;9764;48.114;11.670;2023-04-25T00:44:21;21.60;97.00
19261;DHT22;9764;48.114;11.670;2023-04-25T00:46:50;21.60;97.10
19261;DHT22;9764;48.114;11.670;2023-04-25T00:49:18;21.60;97.10
19261;DHT22;9764;48.114;11.670;2023-04-25T00:51:47;21.60;97.40
19261;DHT22;9764;48.114;11.670;2023-04-25T00:54:16;21.60;96.90
19261;DHT22;9764;48.114;11.670;2023-04-25T00:56:45;21.60;97.20
19261;DHT22;9764;48.114;11.670;2023-04-25T00:59:14;21.60;97.00
19261;DHT22;9764;48.114;11.670;2023-04-25T01:01:45;21.60;97.00
19261;DHT22;9764;48.114;11.670;2023-04-25T01:04:13;21.60;97.00
19261;DHT22;9764;48.114;11.670;2023-04-25T01:06:42;21.50;97.00
19261;DHT22;9764;48.114;11.670;2023-04-25T01:09:10;21.50;96.90
19261;DHT22;9764;48.114;11.670;2023-04-25T01:11:39;21.50;96.90
19261;DHT22;9764;48.114;11.670;2023-04-25T01:14:08;21.50;96.90
19261;DHT22;9764;48.114;11.670;2023-04-25T01:16:36;21.50;96.90
19261;DHT22;9764;48.114;11.670;2023-04-25T01:19:09;21.50;96.90
19261;DHT22;9764;48.114;11.670;2023-04-25T01:21:40;21.50;96.80
19261;DHT22;9764;48.114;11.670;2023-04-25T01:24:08;21.50;96.90
19261;DHT22;9764;48.114;11.670;2023-04-25T01:26:37;21.50;97.10
19261;DHT22;9764;48.114;11.670;2023-04-25T01:29:07;21.50;96.80
19261;DHT22;9764;48.114;11.670;2023-04-25T01:31:36;21.50;96.80
19261;DHT22;9764;48.114;11.670;2023-04-25T01:34:05;21.50;96.80
19261;DHT22;9764;48.114;11.670;2023-04-25T01:36:34;21.50;96.80
19261;DHT22;9764;48.114;11.670;2023-04-25T01:39:04;21.50;96.80
19261;DHT22;9764;48.114;11.670;2023-04-25T01:41:33;21.50;96.70
19261;DHT22;9764;48.114;11.670;2023-04-25T01:44:03;21.50;96.70
19261;DHT22;9764;48.114;11.670;2023-04-25T01:46:34;21.50;96.70
19261;DHT22;9764;48.114;11.670;2023-04-25T01:49:02;21.50;96.80
19261;DHT22;9764;48.114;11.670;2023-04-25T01:51:32;21.50;97.10
19261;DHT22;9764;48.114;11.670;2023-04-25T01:54:00;21.50;96.80
19261;DHT22;9764;48.114;11.670;2023-04-25T01:56:37;21.50;96.70
19261;DHT22;9764;48.114;11.670;2023-04-25T01:59:07;21.50;96.60
19261;DHT22;9764;48.114;11.670;2023-04-25T02:02:11;21.50;96.60
19261;DHT22;9764;48.114;11.670;2023-04-25T02:04:39;21.40;96.50
19261;DHT22;9764;48.114;11.670;2023-04-25T02:07:08;21.40;96.40
19261;DHT22;9764;48.114;11.670;2023-04-25T02:09:47;21.40;96.50
19261;DHT22;9764;48.114;11.670;2023-04-25T02:12:19;21.40;96.50
19261;DHT22;9764;48.114;11.670;2023-04-25T02:15:25;21.40;96.90
19261;DHT22;9764;48.114;11.670;2023-04-25T02:17:58;21.40;96.50
19261;DHT22;9764;48.114;11.670;2023-04-25T02:20:27;21.40;96.40
19261;DHT22;9764;48.114;11.670;2023-04-25T02:22:56;21.40;96.40
19261;DHT22;9764;48.114;11.670;2023-04-25T02:25:27;21.40;96.40
19261;DHT22;9764;48.114;11.670;2023-04-25T02:27:56;21.40;96.40
19261;DHT22;9764;48.114;11.670;2023-04-25T02:30:25;21.40;96.40
19261;DHT22;9764;48.114;11.670;2023-04-25T02:32:53;21.40;96.40
19261;DHT22;9764;48.114;11.670;2023-04-25T02:35:22;21.40;96.40
19261;DHT22;9764;48.114;11.670;2023-04-25T02:37:53;21.40;96.40
19261;DHT22;9764;48.114;11.670;2023-04-25T02:40:21;21.40;96.50
19261;DHT22;9764;48.114;11.670;2023-04-25T02:42:49;21.40;96.50
19261;DHT22;9764;48.114;11.670;2023-04-25T02:45:20;21.40;96.50
19261;DHT22;9764;48.114;11.670;2023-04-25T02:47:49;21.40;96.50
19261;DHT22;9764;48.114;11.670;2023-04-25T02:50:18;21.40;96.90
19261;DHT22;9764;48.114;11.670;2023-04-25T02:52:47;21.40;96.60
19261;DHT22;9764;48.114;11.670;2023-04-25T02:55:20;21.40;96.50
19261;DHT22;9764;48.114;11.670;2023-04-25T02:57:51;21.40;96.50
19261;DHT22;9764;48.114;11.670;2023-04-25T03:00:32;21.40;96.50
19261;DHT22;9764;48.114;11.670;2023-04-25T03:03:00;21.40;96.90
19261;DHT22;9764;48.114;11.670;2023-04-25T03:05:29;21.40;96.50
19261;DHT22;9764;48.114;11.670;2023-04-25T03:07:58;21.40;96.50
19261;DHT22;9764;48.114;11.670;2023-04-25T03:10:27;21.40;96.50
19261;DHT22;9764;48.114;11.670;2023-04-25T03:13:00;21.40;96.50
19261;DHT22;9764;48.114;11.670;2023-04-25T03:15:28;21.40;96.50
19261;DHT22;9764;48.114;11.670;2023-04-25T03:17:58;21.40;96.60
19261;DHT22;9764;48.114;11.670;2023-04-25T03:20:26;21.30;96.60
19261;DHT22;9764;48.114;11.670;2023-04-25T03:22:55;21.30;96.60
19261;DHT22;9764;48.114;11.670;2023-04-25T03:25:23;21.30;96.60
19261;DHT22;9764;48.114;11.670;2023-04-25T03:27:52;21.30;96.60
19261;DHT22;9764;48.114;11.670;2023-04-25T03:30:21;21.30;96.60
19261;DHT22;9764;48.114;11.670;2023-04-25T03:32:49;21.30;96.50
19261;DHT22;9764;48.114;11.670;2023-04-25T03:35:19;21.30;96.60
19261;DHT22;9764;48.114;11.670;2023-04-25T03:37:47;21.30;96.60
19261;DHT22;9764;48.114;11.670;2023-04-25T03:40:21;21.30;96.50
19261;DHT22;9764;48.114;11.670;2023-04-25T03:43:07;21.30;96.50
19261;DHT22;9764;48.114;11.670;2023-04-25T03:45:37;21.30;96.50
19261;DHT22;9764;48.114;11.670;2023-04-25T03:48:05;21.30;96.50
19261;DHT22;9764;48.114;11.670;2023-04-25T03:50:35;21.30;96.60
19261;DHT22;9764;48.114;11.670;2023-04-25T03:53:04;21.30;96.60
19261;DHT22;9764;48.114;11.670;2023-04-25T03:55:52;21.30;96.60
19261;DHT22;9764;48.114;11.670;2023-04-25T03:58:20;21.30;96.60
19261;DHT22;9764;48.114;11.670;2023-04-25T04:00:50;21.30;96.60
19261;DHT22;9764;48.114;11.670;2023-04-25T04:03:18;21.30;96.50
19261;DHT22;9764;48.114;11.670;2023-04-25T04:05:49;21.30;96.60
19261;DHT22;9764;48.114;11.670;2023-04-25T04:08:18;21.30;96.50
19261;DHT22;9764;48.114;11.670;2023-04-25T04:10:46;21.30;96.60
19261;DHT22;9764;48.114;11.670;2023-04-25T04:13:14;21.30;96.50
19261;DHT22;9764;48.114;11.670;2023-04-25T04:15:44;21.30;96.60
19261;DHT22;9764;48.114;11.670;2023-04-25T04:18:12;21.30;96.60
19261;DHT22;9764;48.114;11.670;2023-04-25T04:20:41;21.30;96.50
19261;DHT22;9764;48.114;11.670;2023-04-25T04:23:11;21.30;96.50
19261;DHT22;9764;48.114;11.670;2023-04-25T04:25:40;21.30;96.50
19261;DHT22;9764;48.114;11.670;2023-04-25T04:28:27;21.30;96.50
19261;DHT22;9764;48.114;11.670;2023-04-25T04:31:03;21.30;96.50
19261;DHT22;9764;48.114;11.670;2023-04-25T04:33:32;21.30;96.50
19261;DHT22;9764;48.114;11.670;2023-04-25T04:36:03;21.30;96.50
19261;DHT22;9764;48.114;11.670;2023-04-25T04:38:35;21.30;96.60
19261;DHT22;9764;48.114;11.670;2023-04-25T04:41:09;21.30;96.50
19261;DHT22;9764;48.114;11.670;2023-04-25T04:43:48;21.30;96.50
19261;DHT22;9764;48.114;11.670;2023-04-25T04:46:37;21.30;96.30
19261;DHT22;9764;48.114;11.670;2023-04-25T04:49:25;21.30;96.40
19261;DHT22;9764;48.114;11.670;2023-04-25T04:52:25;21.30;96.30
19261;DHT22;9764;48.114;11.670;2023-04-25T04:55:04;21.30;96.30
19261;DHT22;9764;48.114;11.670;2023-04-25T04:57:43;21.30;96.50
19261;DHT22;9764;48.114;11.670;2023-04-25T05:00:28;21.40;96.50
19261;DHT22;9764;48.114;11.670;2023-04-25T05:03:23;21.40;96.50
19261;DHT22;9764;48.114;11.670;2023-04-25T05:06:06;21.40;96.40
19261;DHT22;9764;48.114;11.670;2023-04-25T05:08:54;21.40;96.50
19261;DHT22;9764;48.114;11.670;2023-04-25T05:11:48;21.40;96.40
19261;DHT22;9764;48.114;11.670;2023-04-25T05:14:28;21.40;96.50
19261;DHT22;9764;48.114;11.670;2023-04-25T05:17:07;21.30;96.50
19261;DHT22;9764;48.114;11.670;2023-04-25T05:19:57;21.30;96.40
19261;DHT22;9764;48.114;11.670;2023-04-25T05:22:38;21.30;96.50
19261;DHT22;9764;48.114;11.670;2023-04-25T05:25:22;21.30;96.50
19261;DHT22;9764;48.114;11.670;2023-04-25T05:28:06;21.30;96.80
19261;DHT22;9764;48.114;11.670;2023-04-25T05:30:58;21.40;96.50
19261;DHT22;9764;48.114;11.670;2023-04-25T05:33:30;21.40;96.50
19261;DHT22;9764;48.114;11.670;2023-04-25T05:35:59;21.40;96.60
19261;DHT22;9764;48.114;11.670;2023-04-25T05:38:27;21.40;96.60
19261;DHT22;9764;48.114;11.670;2023-04-25T05:41:14;21.40;96.90
19261;DHT22;9764;48.114;11.670;2023-04-25T05:43:48;21.40;96.50
19261;DHT22;9764;48.114;11.670;2023-04-25T05:46:24;21.40;96.90
19261;DHT22;9764;48.114;11.670;2023-04-25T05:49:13;21.40;96.50
19261;DHT22;9764;48.114;11.670;2023-04-25T05:52:03;21.40;96.50
19261;DHT22;9764;48.114;11.670;2023-04-25T05:54:32;21.50;96.50
19261;DHT22;9764;48.114;11.670;2023-04-25T05:57:00;21.50;96.50
19261;DHT22;9764;48.114;11.670;2023-04-25T05:59:31;21.50;96.50
19261;DHT22;9764;48.114;11.670;2023-04-25T06:02:00;21.60;96.40
19261;DHT22;9764;48.114;11.670;2023-04-25T06:04:31;21.60;96.30
19261;DHT22;9764;48.114;11.670;2023-04-25T06:07:00;21.60;96.10
19261;DHT22;9764;48.114;11.670;2023-04-25T06:09:29;21.70;96.10
19261;DHT22;9764;48.114;11.670;2023-04-25T06:11:57;21.70;96.10
19261;DHT22;9764;48.114;11.670;2023-04-25T06:14:26;21.70;96.00
19261;DHT22;9764;48.114;11.670;2023-04-25T06:16:57;21.70;96.10
19261;DHT22;9764;48.114;11.670;2023-04-25T06:19:26;21.70;96.10
19261;DHT22;9764;48.114;11.670;2023-04-25T06:21:54;21.70;96.20
19261;DHT22;9764;48.114;11.670;2023-04-25T06:24:23;21.70;96.20
19261;DHT22;9764;48.114;11.670;2023-04-25T06:26:51;21.70;96.30
19261;DHT22;9764;48.114;11.670;2023-04-25T06:29:19;21.60;96.30
19261;DHT22;9764;48.114;11.670;2023-04-25T06:31:48;21.60;96.30
19261;DHT22;9764;48.114;11.670;2023-04-25T06:34:18;21.60;96.20
19261;DHT22;9764;48.114;11.670;2023-04-25T06:36:47;21.60;96.40
19261;DHT22;9764;48.114;11.670;2023-04-25T06:39:16;21.60;96.40
19261;DHT22;9764;48.114;11.670;2023-04-25T06:41:44;21.60;96.40
19261;DHT22;9764;48.114;11.670;2023-04-25T06:44:48;21.60;96.30
19261;DHT22;9764;48.114;11.670;2023-04-25T06:47:18;21.60;96.30
19261;DHT22;9764;48.114;11.670;2023-04-25T06:49:49;21.60;96.30
19261;DHT22;9764;48.114;11.670;2023-04-25T06:52:19;21.60;96.30
19261;DHT22;9764;48.114;11.670;2023-04-25T06:54:48;21.60;96.30
19261;DHT22;9764;48.114;11.670;2023-04-25T06:57:50;21.60;96.30
19261;DHT22;9764;48.114;11.670;2023-04-25T07:00:37;21.60;96.30
19261;DHT22;9764;48.114;11.670;2023-04-25T07:03:05;21.60;96.30
19261;DHT22;9764;48.114;11.670;2023-04-25T07:05:35;21.60;96.30
19261;DHT22;9764;48.114;11.670;2023-04-25T07:08:04;21.60;96.20
19261;DHT22;9764;48.114;11.670;2023-04-25T07:10:32;21.60;96.20
19261;DHT22;9764;48.114;11.670;2023-04-25T07:13:02;21.60;96.30
19261;DHT22;9764;48.114;11.670;2023-04-25T07:15:30;21.60;96.30
19261;DHT22;9764;48.114;11.670;2023-04-25T07:18:00;21.60;96.30
19261;DHT22;9764;48.114;11.670;2023-04-25T07:20:28;21.60;96.30
19261;DHT22;9764;48.114;11.670;2023-04-25T07:22:59;21.60;96.30
19261;DHT22;9764;48.114;11.670;2023-04-25T07:25:27;21.60;96.30
19261;DHT22;9764;48.114;11.670;2023-04-25T07:27:57;21.60;96.30
19261;DHT22;9764;48.114;11.670;2023-04-25T07:30:26;21.60;96.30
19261;DHT22;9764;48.114;11.670;2023-04-25T07:32:54;21.60;96.20
19261;DHT22;9764;48.114;11.670;2023-04-25T07:35:24;21.60;96.30
19261;DHT22;9764;48.114;11.670;2023-04-25T07:37:52;21.60;96.20
19261;DHT22;9764;48.114;11.670;2023-04-25T07:40:22;21.60;96.20
19261;DHT22;9764;48.114;11.670;2023-04-25T07:42:58;21.60;96.30
19261;DHT22;9764;48.114;11.670;2023-04-25T07:45:36;21.60;96.20
19261;DHT22;9764;48.114;11.670;2023-04-25T07:48:05;21.60;96.60
19261;DHT22;9764;48.114;11.670;2023-04-25T07:50:36;21.60;96.20
19261;DHT22;9764;48.114;11.670;2023-04-25T07:53:05;21.60;96.20
19261;DHT22;9764;48.114;11.670;2023-04-25T07:55:42;21.60;96.30
19261;DHT22;9764;48.114;11.670;2023-04-25T07:58:15;21.60;96.30
19261;DHT22;9764;48.114;11.670;2023-04-25T08:00:50;21.60;96.40
19261;DHT22;9764;48.114;11.670;2023-04-25T08:03:33;21.60;96.40
19261;DHT22;9764;48.114;11.670;2023-04-25T08:06:06;21.60;96.30
19261;DHT22;9764;48.114;11.670;2023-04-25T08:08:43;21.50;96.30
19261;DHT22;9764;48.114;11.670;2023-04-25T08:11:17;21.50;96.40
19261;DHT22;9764;48.114;11.670;2023-04-25T08:13:45;21.50;96.40
19261;DHT22;9764;48.114;11.670;2023-04-25T08:16:14;21.50;96.40
19261;DHT22;9764;48.114;11.670;2023-04-25T08:18:42;21.50;96.40
19261;DHT22;9764;48.114;11.670;2023-04-25T08:21:14;21.60;96.40
19261;DHT22;9764;48.114;11.670;2023-04-25T08:23:43;21.60;96.40
19261;DHT22;9764;48.114;11.670;2023-04-25T08:26:25;21.60;96.40
19261;DHT22;9764;48.114;11.670;2023-04-25T08:28:53;21.60;96.50
19261;DHT22;9764;48.114;11.670;2023-04-25T08:31:22;21.60;96.40
19261;DHT22;9764;48.114;11.670;2023-04-25T08:33:59;21.60;96.40
19261;DHT22;9764;48.114;11.670;2023-04-25T08:36:38;21.50;96.90
19261;DHT22;9764;48.114;11.670;2023-04-25T08:39:28;21.50;96.50
19261;DHT22;9764;48.114;11.670;2023-04-25T08:42:16;21.50;96.50
19261;DHT22;9764;48.114;11.670;2023-04-25T08:44:45;21.50;96.50
19261;DHT22;9764;48.114;11.670;2023-04-25T08:47:13;21.50;96.50
19261;DHT22;9764;48.114;11.670;2023-04-25T08:49:47;21.50;96.60
19261;DHT22;9764;48.114;11.670;2023-04-25T08:52:22;21.50;96.60
19261;DHT22;9764;48.114;11.670;2023-04-25T08:54:53;21.50;96.60
19261;DHT22;9764;48.114;11.670;2023-04-25T08:57:25;21.50;96.70
19261;DHT22;9764;48.114;11.670;2023-04-25T08:59:54;21.50;96.60
19261;DHT22;9764;48.114;11.670;2023-04-25T09:02:24;21.50;96.60
19261;DHT22;9764;48.114;11.670;2023-04-25T09:04:54;21.50;96.50
19261;DHT22;9764;48.114;11.670;2023-04-25T09:07:23;21.50;96.50
19261;DHT22;9764;48.114;11.670;2023-04-25T09:09:54;21.50;96.60
19261;DHT22;9764;48.114;11.670;2023-04-25T09:12:24;21.50;96.50
19261;DHT22;9764;48.114;11.670;2023-04-25T09:15:03;21.50;96.50
19261;DHT22;9764;48.114;11.670;2023-04-25T09:17:55;21.50;96.60
19261;DHT22;9764;48.114;11.670;2023-04-25T09:20:26;21.50;96.50
19261;DHT22;9764;48.114;11.670;2023-04-25T09:23:01;21.50;96.50
19261;DHT22;9764;48.114;11.670;2023-04-25T09:25:34;21.50;96.50
19261;DHT22;9764;48.114;11.670;2023-04-25T09:28:09;21.50;96.80
19261;DHT22;9764;48.114;11.670;2023-04-25T09:30:37;21.50;96.80
19261;DHT22;9764;48.114;11.670;2023-04-25T09:33:18;21.50;96.50
19261;DHT22;9764;48.114;11.670;2023-04-25T09:35:50;21.50;96.40
19261;DHT22;9764;48.114;11.670;2023-04-25T09:38:41;21.50;96.40
19261;DHT22;9764;48.114;11.670;2023-04-25T09:41:24;21.50;96.30
19261;DHT22;9764;48.114;11.670;2023-04-25T09:43:58;21.50;96.30
19261;DHT22;9764;48.114;11.670;2023-04-25T09:46:33;21.50;96.40
19261;DHT22;9764;48.114;11.670;2023-04-25T09:49:06;21.50;96.50
19261;DHT22;9764;48.114;11.670;2023-04-25T09:51:54;21.50;96.50
19261;DHT22;9764;48.114;11.670;2023-04-25T09:54:24;21.50;96.40
19261;DHT22;9764;48.114;11.670;2023-04-25T09:57:11;21.50;96.50
19261;DHT22;9764;48.114;11.670;2023-04-25T09:59:45;21.50;96.50
19261;DHT22;9764;48.114;11.670;2023-04-25T10:02:16;21.50;96.40
19261;DHT22;9764;48.114;11.670;2023-04-25T10:04:49;21.50;96.50
19261;DHT22;9764;48.114;11.670;2023-04-25T10:07:34;21.50;96.50
19261;DHT22;9764;48.114;11.670;2023-04-25T10:10:10;21.50;96.50
19261;DHT22;9764;48.114;11.670;2023-04-25T10:12:40;21.60;96.40
19261;DHT22;9764;48.114;11.670;2023-04-25T10:15:13;21.50;96.30
19261;DHT22;9764;48.114;11.670;2023-04-25T10:17:43;21.60;96.30
19261;DHT22;9764;48.114;11.670;2023-04-25T10:20:12;21.60;96.20
19261;DHT22;9764;48.114;11.670;2023-04-25T10:22:43;21.50;96.30
19261;DHT22;9764;48.114;11.670;2023-04-25T10:25:12;21.60;96.30
19261;DHT22;9764;48.114;11.670;2023-04-25T10:27:41;21.50;96.30
19261;DHT22;9764;48.114;11.670;2023-04-25T10:30:14;21.60;96.30
19261;DHT22;9764;48.114;11.670;2023-04-25T10:32:43;21.60;96.20
19261;DHT22;9764;48.114;11.670;2023-04-25T10:35:14;21.60;96.20
19261;DHT22;9764;48.114;11.670;2023-04-25T10:37:59;21.60;96.20
19261;DHT22;9764;48.114;11.670;2023-04-25T10:40:28;21.60;96.10
19261;DHT22;9764;48.114;11.670;2023-04-25T10:43:35;21.70;96.10
19261;DHT22;9764;48.114;11.670;2023-04-25T10:46:24;21.70;96.10
19261;DHT22;9764;48.114;11.670;2023-04-25T10:48:53;21.70;96.10
19261;DHT22;9764;48.114;11.670;2023-04-25T10:51:24;21.70;96.10
19261;DHT22;9764;48.114;11.670;2023-04-25T10:54:00;21.70;96.10
19261;DHT22;9764;48.114;11.670;2023-04-25T10:56:29;21.70;96.10
19261;DHT22;9764;48.114;11.670;2023-04-25T10:59:08;21.70;96.10
19261;DHT22;9764;48.114;11.670;2023-04-25T11:01:40;21.70;96.10
19261;DHT22;9764;48.114;11.670;2023-04-25T11:04:22;21.70;96.00
19261;DHT22;9764;48.114;11.670;2023-04-25T11:07:00;21.80;96.10
19261;DHT22;9764;48.114;11.670;2023-04-25T11:09:33;21.80;96.10
19261;DHT22;9764;48.114;11.670;2023-04-25T11:12:02;21.80;96.10
19261;DHT22;9764;48.114;11.670;2023-04-25T11:14:31;21.90;96.10
19261;DHT22;9764;48.114;11.670;2023-04-25T11:17:01;21.90;96.00
19261;DHT22;9764;48.114;11.670;2023-04-25T11:19:29;21.90;96.00
19261;DHT22;9764;48.114;11.670;2023-04-25T11:21:59;21.90;96.00
19261;DHT22;9764;48.114;11.670;2023-04-25T11:24:28;21.90;96.00
19261;DHT22;9764;48.114;11.670;2023-04-25T11:26:58;21.90;96.00
19261;DHT22;9764;48.114;11.670;2023-04-25T11:29:27;21.90;96.00
19261;DHT22;9764;48.114;11.670;2023-04-25T11:31:56;21.90;96.00
19261;DHT22;9764;48.114;11.670;2023-04-25T11:34:27;21.90;96.00
19261;DHT22;9764;48.114;11.670;2023-04-25T11:36:58;21.80;96.00
19261;DHT22;9764;48.114;11.670;2023-04-25T11:39:27;21.80;96.00
19261;DHT22;9764;48.114;11.670;2023-04-25T11:41:55;21.80;96.00
19261;DHT22;9764;48.114;11.670;2023-04-25T11:44:24;21.80;96.00
19261;DHT22;9764;48.114;11.670;2023-04-25T11:46:52;21.80;96.00
19261;DHT22;9764;48.114;11.670;2023-04-25T11:49:20;21.90;96.10
19261;DHT22;9764;48.114;11.670;2023-04-25T11:51:50;21.90;96.20
19261;DHT22;9764;48.114;11.670;2023-04-25T11:54:18;21.90;96.10
19261;DHT22;9764;48.114;11.670;2023-04-25T11:56:47;21.90;96.10
19261;DHT22;9764;48.114;11.670;2023-04-25T11:59:16;21.90;96.50
19261;DHT22;9764;48.114;11.670;2023-04-25T12:01:48;21.90;96.10
19261;DHT22;9764;48.114;11.670;2023-04-25T12:04:19;22.00;96.20
19261;DHT22;9764;48.114;11.670;2023-04-25T12:06:52;22.00;96.10
19261;DHT22;9764;48.114;11.670;2023-04-25T12:09:28;22.00;96.20
19261;DHT22;9764;48.114;11.670;2023-04-25T12:11:58;22.10;96.20
19261;DHT22;9764;48.114;11.670;2023-04-25T12:14:30;22.10;96.10
19261;DHT22;9764;48.114;11.670;2023-04-25T12:17:00;22.10;96.10
19261;DHT22;9764;48.114;11.670;2023-04-25T12:19:32;22.10;96.10
19261;DHT22;9764;48.114;11.670;2023-04-25T12:22:03;22.10;96.20
19261;DHT22;9764;48.114;11.670;2023-04-25T12:24:33;22.10;96.10
19261;DHT22;9764;48.114;11.670;2023-04-25T12:27:07;22.10;96.10
19261;DHT22;9764;48.114;11.670;2023-04-25T12:29:36;22.10;96.10
19261;DHT22;9764;48.114;11.670;2023-04-25T12:32:15;22.10;96.10
19261;DHT22;9764;48.114;11.670;2023-04-25T12:34:44;22.10;96.10
19261;DHT22;9764;48.114;11.670;2023-04-25T12:37:14;22.10;96.10
19261;DHT22;9764;48.114;11.670;2023-04-25T12:39:43;22.10;96.10
19261;DHT22;9764;48.114;11.670;2023-04-25T12:42:11;22.10;96.40
19261;DHT22;9764;48.114;11.670;2023-04-25T12:44:40;22.10;96.00
19261;DHT22;9764;48.114;11.670;2023-04-25T12:47:08;22.10;96.10
19261;DHT22;9764;48.114;11.670;2023-04-25T12:49:37;22.10;96.10
19261;DHT22;9764;48.114;11.670;2023-04-25T12:52:05;22.10;96.10
19261;DHT22;9764;48.114;11.670;2023-04-25T12:54:35;22.10;96.10
19261;DHT22;9764;48.114;11.670;2023-04-25T12:57:04;22.10;96.10
19261;DHT22;9764;48.114;11.670;2023-04-25T12:59:32;22.10;96.10
19261;DHT22;9764;48.114;11.670;2023-04-25T13:02:00;22.20;96.20
19261;DHT22;9764;48.114;11.670;2023-04-25T13:04:31;22.20;96.50
19261;DHT22;9764;48.114;11.670;2023-04-25T13:06:59;22.20;96.20
19261;DHT22;9764;48.114;11.670;2023-04-25T13:09:27;22.20;96.30
19261;DHT22;9764;48.114;11.670;2023-04-25T13:11:57;22.20;96.20
19261;DHT22;9764;48.114;11.670;2023-04-25T13:14:25;22.20;96.20
19261;DHT22;9764;48.114;11.670;2023-04-25T13:16:54;22.20;96.20
19261;DHT22;9764;48.114;11.670;2023-04-25T13:19:22;22.20;96.20
19261;DHT22;9764;48.114;11.670;2023-04-25T13:21:51;22.10;96.10
19261;DHT22;9764;48.114;11.670;2023-04-25T13:24:19;22.20;96.20
19261;DHT22;9764;48.114;11.670;2023-04-25T13:26:49;22.10;96.10
19261;DHT22;9764;48.114;11.670;2023-04-25T13:29:18;22.10;96.20
19261;DHT22;9764;48.114;11.670;2023-04-25T13:31:47;22.10;96.30
19261;DHT22;9764;48.114;11.670;2023-04-25T13:34:15;22.10;96.20
19261;DHT22;9764;48.114;11.670;2023-04-25T13:36:43;22.10;96.30
19261;DHT22;9764;48.114;11.670;2023-04-25T13:39:12;22.10;96.20
19261;DHT22;9764;48.114;11.670;2023-04-25T13:41:42;22.10;96.20
19261;DHT22;9764;48.114;11.670;2023-04-25T13:44:10;22.10;96.30
19261;DHT22;9764;48.114;11.670;2023-04-25T13:46:40;22.10;96.20
19261;DHT22;9764;48.114;11.670;2023-04-25T13:49:13;22.10;96.20
19261;DHT22;9764;48.114;11.670;2023-04-25T13:51:42;22.20;96.20
19261;DHT22;9764;48.114;11.670;2023-04-25T13:54:11;22.20;96.20
19261;DHT22;9764;48.114;11.670;2023-04-25T13:56:40;22.20;96.20
19261;DHT22;9764;48.114;11.670;2023-04-25T13:59:09;22.20;96.20
19261;DHT22;9764;48.114;11.670;2023-04-25T14:01:39;22.20;96.10
19261;DHT22;9764;48.114;11.670;2023-04-25T14:04:08;22.20;96.10
19261;DHT22;9764;48.114;11.670;2023-04-25T14:06:37;22.20;96.50
19261;DHT22;9764;48.114;11.670;2023-04-25T14:09:05;22.20;96.10
19261;DHT22;9764;48.114;11.670;2023-04-25T14:11:37;22.20;96.10
19261;DHT22;9764;48.114;11.670;2023-04-25T14:14:05;22.30;96.00
19261;DHT22;9764;48.114;11.670;2023-04-25T14:16:34;22.30;96.00
19261;DHT22;9764;48.114;11.670;2023-04-25T14:19:03;22.30;96.00
19261;DHT22;9764;48.114;11.670;2023-04-25T14:21:32;22.30;95.90
19261;DHT22;9764;48.114;11.670;2023-04-25T14:24:00;22.30;96.00
19261;DHT22;9764;48.114;11.670;2023-04-25T14:26:29;22.30;96.00
19261;DHT22;9764;48.114;11.670;2023-04-25T14:28:57;22.30;96.00
19261;DHT22;9764;48.114;11.670;2023-04-25T14:31:28;22.30;96.00
19261;DHT22;9764;48.114;11.670;2023-04-25T14:33:57;22.30;96.00
19261;DHT22;9764;48.114;11.670;2023-04-25T14:36:28;22.30;96.40
19261;DHT22;9764;48.114;11.670;2023-04-25T14:38:57;22.30;96.00
19261;DHT22;9764;48.114;11.670;2023-04-25T14:41:26;22.30;96.00
19261;DHT22;9764;48.114;11.670;2023-04-25T14:43:55;22.30;96.10
19261;DHT22;9764;48.114;11.670;2023-04-25T14:46:23;22.30;96.00
19261;DHT22;9764;48.114;11.670;2023-04-25T14:48:52;22.30;96.00
19261;DHT22;9764;48.114;11.670;2023-04-25T14:51:23;22.30;96.00
19261;DHT22;9764;48.114;11.670;2023-04-25T14:53:52;22.30;96.00
19261;DHT22;9764;48.114;11.670;2023-04-25T14:56:21;22.30;96.00
19261;DHT22;9764;48.114;11.670;2023-04-25T14:58:49;22.30;96.10
19261;DHT22;9764;48.114;11.670;2023-04-25T15:01:18;22.30;96.00
19261;DHT22;9764;48.114;11.670;2023-04-25T15:03:47;22.30;96.10
19261;DHT22;9764;48.114;11.670;2023-04-25T15:06:17;22.30;96.10
19261;DHT22;9764;48.114;11.670;2023-04-25T15:08:45;22.30;96.10
19261;DHT22;9764;48.114;11.670;2023-04-25T15:11:15;22.30;96.10
19261;DHT22;9764;48.114;11.670;2023-04-25T15:13:43;22.30;96.10
19261;DHT22;9764;48.114;11.670;2023-04-25T15:16:11;22.30;96.60
19261;DHT22;9764;48.114;11.670;2023-04-25T15:18:40;22.30;96.50
19261;DHT22;9764;48.114;11.670;2023-04-25T15:21:08;22.30;96.20
19261;DHT22;9764;48.114;11.670;2023-04-25T15:23:37;22.30;96.30
19261;DHT22;9764;48.114;11.670;2023-04-25T15:26:05;22.30;96.20
19261;DHT22;9764;48.114;11.670;2023-04-25T15:28:35;22.30;96.20
19261;DHT22;9764;48.114;11.670;2023-04-25T15:31:03;22.30;96.20
19261;DHT22;9764;48.114;11.670;2023-04-25T15:33:32;22.30;96.20
19261;DHT22;9764;48.114;11.670;2023-04-25T15:36:00;22.20;96.20
19261;DHT22;9764;48.114;11.670;2023-04-25T15:38:30;22.20;96.20
19261;DHT22;9764;48.114;11.670;2023-04-25T15:40:58;22.20;96.20
19261;DHT22;9764;48.114;11.670;2023-04-25T15:43:27;22.20;96.20
19261;DHT22;9764;48.114;11.670;2023-04-25T15:45:56;22.20;96.30
19261;DHT22;9764;48.114;11.670;2023-04-25T15:48:25;22.20;96.30
19261;DHT22;9764;48.114;11.670;2023-04-25T15:50:53;22.20;96.30
19261;DHT22;9764;48.114;11.670;2023-04-25T15:53:22;22.20;96.30
19261;DHT22;9764;48.114;11.670;2023-04-25T15:55:50;22.20;96.30
19261;DHT22;9764;48.114;11.670;2023-04-25T15:58:18;22.20;96.30
19261;DHT22;9764;48.114;11.670;2023-04-25T16:00:47;22.20;96.30